Map

Track Data

SID SEASON NUMBER BASIN SUBBASIN NAME ISO_TIME NATURE LAT LON WMO_WIND WMO_PRES WMO_AGENCY TRACK_TYPE DIST2LAND LANDFALL IFLAG USA_AGENCY USA_ATCF_ID USA_LAT USA_LON USA_RECORD USA_STATUS USA_WIND USA_PRES USA_SSHS USA_R34_NE USA_R34_SE USA_R34_SW USA_R34_NW USA_R50_NE USA_R50_SE USA_R50_SW USA_R50_NW USA_R64_NE USA_R64_SE USA_R64_SW USA_R64_NW USA_POCI USA_ROCI USA_RMW USA_EYE TOKYO_LAT TOKYO_LON TOKYO_GRADE TOKYO_WIND TOKYO_PRES TOKYO_R50_DIR TOKYO_R50_LONG TOKYO_R50_SHORT TOKYO_R30_DIR TOKYO_R30_LONG TOKYO_R30_SHORT TOKYO_LAND CMA_LAT CMA_LON CMA_CAT CMA_WIND CMA_PRES HKO_LAT HKO_LON HKO_CAT HKO_WIND HKO_PRES NEWDELHI_LAT NEWDELHI_LON NEWDELHI_GRADE NEWDELHI_WIND NEWDELHI_PRES NEWDELHI_CI NEWDELHI_DP NEWDELHI_POCI REUNION_LAT REUNION_LON REUNION_TYPE REUNION_WIND REUNION_PRES REUNION_TNUM REUNION_CI REUNION_RMW REUNION_R34_NE REUNION_R34_SE REUNION_R34_SW REUNION_R34_NW REUNION_R50_NE REUNION_R50_SE REUNION_R50_SW REUNION_R50_NW REUNION_R64_NE REUNION_R64_SE REUNION_R64_SW REUNION_R64_NW BOM_LAT BOM_LON BOM_TYPE BOM_WIND BOM_PRES BOM_TNUM BOM_CI BOM_RMW BOM_R34_NE BOM_R34_SE BOM_R34_SW BOM_R34_NW BOM_R50_NE BOM_R50_SE BOM_R50_SW BOM_R50_NW BOM_R64_NE BOM_R64_SE BOM_R64_SW BOM_R64_NW BOM_ROCI BOM_POCI BOM_EYE BOM_POS_METHOD BOM_PRES_METHOD NADI_LAT NADI_LON NADI_CAT NADI_WIND NADI_PRES WELLINGTON_LAT WELLINGTON_LON WELLINGTON_WIND WELLINGTON_PRES DS824_LAT DS824_LON DS824_STAGE DS824_WIND DS824_PRES TD9636_LAT TD9636_LON TD9636_STAGE TD9636_WIND TD9636_PRES TD9635_LAT TD9635_LON TD9635_WIND TD9635_PRES TD9635_ROCI NEUMANN_LAT NEUMANN_LON NEUMANN_CLASS NEUMANN_WIND NEUMANN_PRES MLC_LAT MLC_LON MLC_CLASS MLC_WIND MLC_PRES USA_GUST BOM_GUST BOM_GUST_PER REUNION_GUST REUNION_GUST_PER USA_SEAHGT USA_SEARAD_NE USA_SEARAD_SE USA_SEARAD_SW USA_SEARAD_NW STORM_SPEED STORM_DIR
1959231N16130 1959 63 WP MM IRIS 1959-08-18 18:00:00 TS 16.0000 129.700 main 616 586 __O___________ -1 16.0000 129.700 0 1005 7 271
1959231N16130 1959 63 WP MM IRIS 1959-08-18 21:00:00 TS 16.0051 129.348 main 576 508 __P___________ -1 16.0051 129.348 0 1004 11 273
1959231N16130 1959 63 WP MM IRIS 1959-08-19 00:00:00 TS 16.0500 128.588 1006 tokyo main 514 486 OOO______OOO__ jtwc_wp WP081959 16.2000 128.400 45 0 15.6000 128.100 2 1006 0 0 0 16.0000 129.000 1 23 1004 16.2000 128.400 TC 45 16.2000 128.400 2 45 16.2000 128.400 45 998 120 10 274
1959231N16130 1959 63 WP MM IRIS 1959-08-19 03:00:00 TS 16.0728 128.322 main 486 467 PPP______PPP__ WP081959 16.1874 128.235 45 0 15.7476 128.103 2 1006 0 0 15.9849 128.657 1 26 1003 16.1874 128.235 TC 45 16.2299 128.130 2 46 16.1874 128.235 45 997 150 5 278
1959231N16130 1959 63 WP MM IRIS 1959-08-19 06:00:00 TS 16.1196 128.056 1006 tokyo main 467 446 OOO______OPO__ jtwc_wp WP081959 16.2000 128.000 45 0 15.9000 128.100 2 1006 0 0 0 16.0000 128.300 1 29 1002 16.2000 128.000 TC 45 16.2578 127.858 2 47 16.2000 128.000 45 997 180 6 283
1959231N16130 1959 63 WP MM IRIS 1959-08-19 09:00:00 TS 16.1970 127.754 main 446 420 PPP______PPP__ WP081959 16.2501 127.658 47 0 16.0573 128.067 2 1006 0 0 16.0925 127.900 1 33 1001 16.2501 127.658 TC 47 16.2817 127.582 2 48 16.2501 127.658 47 996 180 6 284
1959231N16130 1959 63 WP MM IRIS 1959-08-19 12:00:00 TS 16.2667 127.433 1006 tokyo main 419 403 OOO______OOO__ jtwc_wp WP081959 16.3000 127.300 50 0 16.2000 127.900 2 1006 0 0 0 16.2000 127.500 2 38 1000 16.3000 127.300 TC 50 16.3000 127.300 2 50 16.3000 127.300 50 996 180 6 280
1959231N16130 1959 63 WP MM IRIS 1959-08-19 15:00:00 TS 16.2975 127.134 main 395 371 PPP______PPP__ WP081959 16.2998 127.050 52 0 16.3226 127.503 2 1003 0 0 16.2499 127.142 2 43 999 16.2998 127.050 TC 52 16.3127 127.011 2 52 16.2998 127.050 52 995 150 6 275
1959231N16130 1959 63 WP MM IRIS 1959-08-19 18:00:00 TS 16.3212 126.819 1000 tokyo main 371 349 OOO______OPO__ jtwc_wp WP081959 16.3000 126.800 55 0 16.4000 127.000 2 1000 0 0 0 16.3000 126.800 3 48 998 16.3000 126.800 TC 55 16.3273 126.715 2 55 16.3000 126.800 55 995 120 6 275
1959231N16130 1959 63 WP MM IRIS 1959-08-19 21:00:00 TS 16.3560 126.461 main 357 330 PPP______PPP__ WP081959 16.3350 126.457 57 0 16.3849 126.542 2 998 0 0 16.3925 126.443 3 53 997 16.3350 126.457 TC 57 16.3533 126.411 2 57 16.3350 126.457 57 994 120 7 278
1959231N16130 1959 63 WP MM IRIS 1959-08-20 00:00:00 TS 16.4167 126.100 996 tokyo main 330 322 OOO______OOO__ jtwc_wp WP081959 16.4000 126.100 60 0 16.4000 126.100 9 996 0 0 0 16.5000 126.100 3 58 996 16.4000 126.100 TC 60 16.4000 126.100 2 60 16.4000 126.100 60 994 120 7 284
1959231N16130 1959 63 WP MM IRIS 1959-08-20 03:00:00 TS 16.5221 125.773 main 322 317 PPP______PPP__ WP081959 16.4924 125.800 65 1 16.5925 125.670 9 995 0 0 16.5924 125.792 3 58 993 16.4924 125.800 TC 65 16.4703 125.774 2 62 16.4924 125.800 64 993 120 7 290
1959231N16130 1959 63 WP MM IRIS 1959-08-20 06:00:00 TS 16.6438 125.457 995 tokyo main 318 288 OOO______OPO__ jtwc_wp WP081959 16.6000 125.500 70 1 16.8000 125.300 9 995 0 0 0 16.7000 125.500 3 58 990 16.6000 125.500 TC 70 16.5625 125.443 2 65 16.6000 125.500 68 992 120 6 290
1959231N16130 1959 63 WP MM IRIS 1959-08-20 09:00:00 TS 16.7430 125.139 main 277 245 PPP______PPP__ WP081959 16.6850 125.157 70 1 16.8723 125.042 9 992 0 0 16.8574 125.208 3 58 990 16.6850 125.157 TC 70 16.6734 125.115 2 67 16.6850 125.157 69 990 120 6 289
1959231N16130 1959 63 WP MM IRIS 1959-08-20 12:00:00 TS 16.8500 124.817 990 tokyo main 244 212 OOO______OOO__ jtwc_wp WP081959 16.8000 124.800 70 1 16.9000 124.800 9 990 0 0 0 17.0000 124.900 3 58 990 16.8000 124.800 TC 70 16.8000 124.800 3 70 16.8000 124.800 70 989 120 7 291
1959231N16130 1959 63 WP MM IRIS 1959-08-20 15:00:00 TS 16.9871 124.467 main 212 181 PPP______PPP__ WP081959 17.0000 124.428 70 1 16.9426 124.450 9 987 0 0 17.0650 124.557 3 63 989 17.0000 124.428 TC 70 16.9151 124.514 3 72 17.0000 124.428 71 987 120 7 293
1959231N16130 1959 63 WP MM IRIS 1959-08-20 18:00:00 TS 17.1245 124.140 985 tokyo main 170 150 OOO______OPO__ jtwc_wp WP081959 17.2000 124.100 70 1 17.0000 124.100 9 985 0 0 0 17.1000 124.200 4 68 988 17.2000 124.100 TC 70 17.0472 124.242 3 74 17.2000 124.100 72 986 120 6 291
1959231N16130 1959 63 WP MM IRIS 1959-08-20 21:00:00 TS 17.2084 123.879 main 150 131 PPP______PPP__ WP081959 17.2924 123.885 75 1 17.0549 123.835 9 985 0 0 17.1126 123.812 4 72 987 17.2924 123.885 TC 75 17.2057 123.974 3 76 17.2924 123.885 75 983 120 5 294
1959231N16130 1959 63 WP MM IRIS 1959-08-21 00:00:00 TS 17.3333 123.650 985 tokyo main 131 111 OOO______OOO__ jtwc_wp WP081959 17.4000 123.700 80 1 17.2000 123.600 9 985 0 0 0 17.2000 123.500 4 77 986 17.4000 123.700 TC 80 17.4000 123.700 4 78 17.4000 123.700 78 981 120 6 310
1959231N16130 1959 63 WP MM IRIS 1959-08-21 03:00:00 TS 17.5667 123.430 main 111 101 PPP______PPP__ WP081959 17.6199 123.472 80 1 17.4974 123.357 9 985 0 0 17.4323 123.385 4 77 982 17.6199 123.472 TC 80 17.6104 123.423 4 78 17.6199 123.472 79 979 120 7 321
1959231N16130 1959 63 WP MM IRIS 1959-08-21 06:00:00 TS 17.8766 123.189 985 tokyo main 105 64 OOO______OPO__ jtwc_wp WP081959 17.9000 123.200 80 1 17.9000 123.100 9 985 0 0 0 17.8000 123.300 4 77 978 17.9000 123.200 TC 80 17.8596 123.136 4 79 17.9000 123.200 80 977 120 8 322
1959231N16130 1959 63 WP MM IRIS 1959-08-21 09:00:00 TS 18.2102 122.899 main 64 33 PPP______PPP__ WP081959 18.1699 122.880 80 1 18.3199 122.830 9 982 0 0 18.2774 123.095 4 82 977 18.1699 122.880 TC 80 18.1541 122.832 4 79 18.1699 122.880 80 975 120 9 320
1959231N16130 1959 63 WP MM IRIS 1959-08-21 12:00:00 TS 18.6000 122.550 980 tokyo main 38 30 OOO______OOO__ jtwc_wp WP081959 18.5000 122.500 80 1 18.8000 122.500 9 980 0 0 0 18.8000 122.800 5 87 977 18.5000 122.500 TC 80 18.5000 122.500 4 80 18.5000 122.500 80 974 120 11 319
1959231N16130 1959 63 WP MM IRIS 1959-08-21 15:00:00 TS 19.0525 122.129 main 78 78 PPP______PPP__ WP081959 18.9276 122.050 82 1 19.3802 122.051 9 980 0 0 19.2724 122.445 5 87 977 18.9276 122.050 TC 82 18.8795 122.129 4 82 18.9276 122.050 82 973 120 12 318
1959231N16130 1959 63 WP MM IRIS 1959-08-21 18:00:00 TS 19.5184 121.688 980 tokyo main 116 116 OOO______OPO__ jtwc_wp WP081959 19.4000 121.600 85 2 19.9000 121.600 9 980 0 0 0 19.7000 122.000 5 87 977 19.4000 121.600 TC 85 19.3101 121.729 4 85 19.4000 121.600 85 972 120 12 318
1959231N16130 1959 63 WP MM IRIS 1959-08-21 21:00:00 TS 19.9163 121.295 main 151 151 PPP______PPP__ WP081959 19.8348 121.235 87 2 20.1647 121.299 9 979 0 0 20.0427 121.450 5 87 976 19.8348 121.235 TC 87 19.7857 121.316 4 87 19.8348 121.235 87 971 120 11 318
1959231N16130 1959 63 WP MM IRIS 1959-08-22 00:00:00 TS 20.3333 120.917 978 tokyo main 178 123 OOO______OOO__ jtwc_wp WP081959 20.3000 120.900 90 2 20.4000 121.000 9 978 0 0 0 20.4000 120.900 5 87 976 20.3000 120.900 TC 90 20.3000 120.900 4 90 20.3000 120.900 90 970 120 12 322
1959231N16130 1959 63 WP MM IRIS 1959-08-22 03:00:00 TS 20.8282 120.538 main 124 76 PPP______PPP__ WP081959 20.8273 120.565 90 2 20.7902 120.558 9 974 0 0 20.8623 120.462 5 92 970 20.8273 120.565 TC 90 20.8345 120.515 4 87 20.8273 120.565 90 968 120 13 326
1959231N16130 1959 63 WP MM IRIS 1959-08-22 06:00:00 TS 21.3840 120.155 970 tokyo main 76 75 OOO______OPO__ jtwc_wp WP081959 21.4000 120.200 90 2 21.3000 120.100 9 970 0 0 0 21.4000 120.100 5 97 965 21.4000 120.200 TC 90 21.4042 120.128 4 84 21.4000 120.200 90 967 120 14 328
1959231N16130 1959 63 WP MM IRIS 1959-08-22 09:00:00 TS 21.9735 119.773 main 75 75 PPP______PPP__ WP081959 21.9850 119.765 85 2 21.9195 119.779 9 967 0 0 21.9695 119.836 5 97 965 21.9850 119.765 TC 85 21.9969 119.727 4 81 21.9850 119.765 84 969 120 14 328
1959231N16130 1959 63 WP MM IRIS 1959-08-22 12:00:00 TS 22.6000 119.350 965 tokyo main 85 85 OOO______OOO__ jtwc_wp WP081959 22.6000 119.300 80 1 22.6000 119.400 9 965 0 0 0 22.6000 119.500 5 97 965 22.6000 119.300 TC 80 22.6000 119.300 4 78 22.6000 119.300 78 971 120 16 326
1959231N16130 1959 63 WP MM IRIS 1959-08-22 15:00:00 TS 23.2593 118.846 main 120 42 PPP______PPP__ WP081959 23.2572 118.865 70 1 23.2659 118.721 9 965 0 0 23.3150 118.925 5 87 970 23.2572 118.865 TC 70 23.2031 118.837 4 71 23.2572 118.865 68 976 90 16 324
1959231N16130 1959 63 WP MM IRIS 1959-08-22 18:00:00 TS 23.9051 118.302 965 tokyo main 42 0 OOO______OPO__ jtwc_wp WP081959 23.9000 118.400 60 0 23.9000 118.100 9 965 0 0 0 24.0000 118.200 4 77 975 23.9000 118.400 TC 60 23.8042 118.344 4 64 23.9000 118.400 58 981 60 15 324
1959231N16130 1959 63 WP MM IRIS 1959-08-22 21:00:00 TS 24.4369 117.919 main 10 0 PPP______PPP__ WP081959 24.3945 118.025 55 0 24.4382 118.132 9 972 0 0 24.5192 117.562 4 50 984 24.3945 118.025 TC 55 24.4031 117.829 4 57 24.4730 117.871 54 986 90 14 320
1959231N16130 1959 63 WP MM IRIS 1959-08-23 00:00:00 TS 25.0000 117.294 980 tokyo main 0 0 OOO______OOO__ jtwc_wp WP081959 25.0000 117.300 50 0 25.0000 117.800 9 980 0 0 0 25.0000 116.600 1 23 994 25.0000 117.300 TC 50 25.0000 117.300 2 50 25.0000 117.300 50 992 120 24 305
1959231N16130 1959 63 WP MM IRIS 1959-08-23 03:00:00 TS 25.7988 115.767 main 0 0 PPP______P____ WP081959 25.9733 115.797 45 0 25.5804 116.072 9 985 0 0 25.5377 115.038 1 21 996 25.9733 115.797 TC 45 2 35 300
1959231N16130 1959 63 WP MM IRIS 1959-08-23 06:00:00 TS 26.7462 113.931 990 tokyo main 0 0 OOO______O____ jtwc_wp WP081959 27.0000 114.000 40 0 26.4000 114.000 9 990 0 0 0 26.1000 113.100 0 19 998 27.0000 114.000 TC 40 2 36 304
1959231N16130 1959 63 WP MM IRIS 1959-08-23 09:00:00 TS 27.7797 112.465 main 0 0 PP_______P____ WP081959 27.7476 112.472 37 0 27.8438 112.453 9 992 0 0 0 27.7476 112.472 TC 37 2 32 309
1959231N16130 1959 63 WP MM IRIS 1959-08-23 12:00:00 TS 28.7333 111.133 995 tokyo main 0 0 OO_______O____ jtwc_wp WP081959 28.5000 111.000 35 0 29.2000 111.400 2 995 0 0 0 28.5000 111.000 TC 35 28 310
1959231N16130 1959 63 WP MM IRIS 1959-08-23 15:00:00 TS 29.5724 110.012 main 0 0 PP_______P____ WP081959 29.4413 109.516 32 -1 29.8345 111.005 2 996 0 0 29.4413 109.516 TC 32 25 311
1959231N16130 1959 63 WP MM IRIS 1959-08-23 18:00:00 TS 30.3333 109.000 998 tokyo main 0 OO_______O____ jtwc_wp WP081959 30.5000 108.000 30 -1 30.0000 111.000 2 998 0 0 0 30.5000 108.000 TC 30 23 311

Digital Typhoon Data and Search

About IBTrACS Database

This database is a web-friendly format of International Best Track Archive for Climate Stewardship (IBTrACS), a global best track data archive curated by NOAA dating back to 1842.

Updated: 2021-10-19